N1201X WIII-WIBB
Flight info
| Callsign | N1201X |
|---|---|
| Flight time | N/A |
| Altitude | 38000 |
| Route | GOMEL T10 OVSET |
| Aircraft | B763/H-SDE3FGHIM3RWXY/LB1 |
Departure
| Time | 2026-04-30 22:51 |
|---|---|
| Airport | Soekarno-Hatta International Airport (WIII) |
Arrival
| Time | N/A |
|---|---|
| Airport | Sultan Syarif Kasim II International Airport / Roesmin Nurjadin AFB (WIBB) |
| Time | Latitude | Longitude | Altitude | Speed | Heading |
|---|---|---|---|---|---|
| 2026-04-30 22:32 | -6.11402 | 106.66844 | 38 ft | 0 kts | 338° |
| 2026-04-30 22:35 | -6.11404 | 106.66844 | 37 ft | 3 kts | 338° |
| 2026-04-30 22:36 | -6.11482 | 106.66856 | 34 ft | 4 kts | 30° |
| 2026-04-30 22:36 | -6.11494 | 106.66837 | 34 ft | 4 kts | 53° |
| 2026-04-30 22:37 | -6.11503 | 106.66819 | 36 ft | 0 kts | 69° |
| 2026-04-30 22:38 | -6.11491 | 106.66850 | 38 ft | 13 kts | 68° |
| 2026-04-30 22:39 | -6.11458 | 106.66918 | 37 ft | 7 kts | 52° |
| 2026-04-30 22:39 | -6.11367 | 106.66926 | 38 ft | 10 kts | 336° |
| 2026-04-30 22:40 | -6.11152 | 106.66724 | 37 ft | 20 kts | 246° |
| 2026-04-30 22:41 | -6.11255 | 106.66199 | 39 ft | 13 kts | 285° |
| 2026-04-30 22:41 | -6.11246 | 106.66104 | 39 ft | 12 kts | 274° |
| 2026-04-30 22:42 | -6.11176 | 106.66670 | 38 ft | 11 kts | 66° |
| 2026-04-30 22:43 | -6.11111 | 106.66822 | 38 ft | 11 kts | 68° |
| 2026-04-30 22:43 | -6.11062 | 106.66946 | 37 ft | 8 kts | 68° |
| 2026-04-30 22:44 | -6.11034 | 106.66968 | 37 ft | 5 kts | 20° |
| 2026-04-30 22:45 | -6.10909 | 106.66855 | 36 ft | 0 kts | 249° |
| 2026-04-30 22:46 | -6.13017 | 106.67433 | 42 ft | 0 kts | 253° |
| 2026-04-30 22:47 | -6.12780 | 106.67343 | 44 ft | 0 kts | 130° |
| 2026-04-30 22:47 | -6.12801 | 106.67367 | 44 ft | 9 kts | 135° |
| 2026-04-30 22:48 | -6.12973 | 106.67412 | 43 ft | 18 kts | 195° |
| 2026-04-30 22:49 | -6.13051 | 106.67359 | 43 ft | 0 kts | 244° |
| 2026-04-30 22:50 | -6.13774 | 106.65517 | 59 ft | 180 kts | 249° |
| 2026-04-30 22:51 | -6.14593 | 106.62836 | 722 ft | 220 kts | 253° |
| 2026-04-30 22:51 | -6.15534 | 106.59692 | 1345 ft | 249 kts | 251° |
| 2026-04-30 22:52 | -6.16082 | 106.57989 | 1746 ft | 264 kts | 251° |
| 2026-04-30 22:52 | -6.17589 | 106.54395 | 2552 ft | 278 kts | 244° |
| 2026-04-30 22:53 | -6.19263 | 106.50727 | 3517 ft | 298 kts | 245° |
| 2026-04-30 22:53 | -6.20861 | 106.46776 | 4589 ft | 313 kts | 260° |
| 2026-04-30 22:53 | -6.20780 | 106.44591 | 5146 ft | 316 kts | 285° |
| 2026-04-30 22:54 | -6.18116 | 106.41237 | 6494 ft | 317 kts | 328° |
| 2026-04-30 22:55 | -6.12152 | 106.38451 | 8463 ft | 312 kts | 344° |
| 2026-04-30 22:55 | -6.07981 | 106.37240 | 9746 ft | 311 kts | 343° |
| 2026-04-30 22:56 | -6.03745 | 106.35971 | 10592 ft | 322 kts | 343° |
| 2026-04-30 22:56 | -5.97144 | 106.34009 | 11197 ft | 337 kts | 343° |
| 2026-04-30 22:57 | -5.92726 | 106.32693 | 12101 ft | 330 kts | 343° |
| 2026-04-30 22:57 | -5.88337 | 106.31388 | 13068 ft | 327 kts | 344° |
| 2026-04-30 22:58 | -5.83916 | 106.30072 | 13688 ft | 336 kts | 344° |
| 2026-04-30 22:59 | -5.77222 | 106.28042 | 14683 ft | 340 kts | 338° |
| 2026-04-30 22:59 | -5.71041 | 106.24565 | 15599 ft | 345 kts | 328° |